Time;durP1;ratioP1;P1;durP2;ratioP2;P2;SDS_P1;SDS_P2;PMS_P1;PMS_P2;Temp;Humidity;BMP_temperature;BMP_pressure;BME280_temperature;BME280_humidity;BME280_pressure;Samples;Min_cycle;Max_cycle;Signal;HPM_P1;HPM_P2
2023/06/20 00:01:13;;;;;;;8.05;5.32;;;;;;;;;;5048226;28;20052;-67
2023/06/20 00:03:41;;;;;;;10.00;5.78;;;;;;;;;;5045913;28;20050;-67
2023/06/20 00:06:08;;;;;;;8.82;5.88;;;;;;;;;;5027496;28;20060;-67
2023/06/20 00:08:35;;;;;;;7.85;5.55;;;;;;;;;;5035455;28;20048;-67
2023/06/20 00:11:02;;;;;;;7.78;5.93;;;;;;;;;;5049814;28;20491;-67
2023/06/20 00:13:31;;;;;;;10.30;6.25;;;;;;;;;;5040268;28;20060;-67
2023/06/20 00:15:58;;;;;;;11.48;6.22;;;;;;;;;;5042860;28;20049;-67
2023/06/20 00:18:26;;;;;;;9.02;5.63;;;;;;;;;;5049146;28;20053;-67
2023/06/20 00:20:54;;;;;;;10.55;6.05;;;;;;;;;;5028584;28;20415;-67
2023/06/20 00:23:21;;;;;;;10.98;6.03;;;;;;;;;;5041167;28;20094;-67
2023/06/20 00:25:48;;;;;;;10.60;5.80;;;;;;;;;;5047670;28;20087;-67
2023/06/20 00:28:17;;;;;;;9.07;5.32;;;;;;;;;;5045307;28;20040;-67
2023/06/20 00:30:46;;;;;;;9.57;5.82;;;;;;;;;;5044095;28;20051;-67
2023/06/20 00:33:13;;;;;;;8.05;5.88;;;;;;;;;;5050427;28;20044;-67
2023/06/20 00:35:40;;;;;;;8.00;5.35;;;;;;;;;;5049257;28;20045;-67
2023/06/20 00:38:08;;;;;;;7.82;5.30;;;;;;;;;;5039992;28;20045;-67
2023/06/20 00:40:35;;;;;;;9.35;5.55;;;;;;;;;;5027329;28;20052;-67
2023/06/20 00:43:03;;;;;;;8.23;5.47;;;;;;;;;;5042462;28;20057;-67
2023/06/20 00:45:32;;;;;;;12.95;5.40;;;;;;;;;;5025364;28;20060;-67
2023/06/20 00:48:02;;;;;;;8.68;5.85;;;;;;;;;;5045675;28;20446;-67
2023/06/20 00:50:30;;;;;;;10.00;6.15;;;;;;;;;;5042318;28;20103;-67
2023/06/20 00:52:59;;;;;;;9.93;6.32;;;;;;;;;;5039159;28;20053;-67
2023/06/20 00:55:27;;;;;;;8.32;5.88;;;;;;;;;;5048088;28;20084;-67
2023/06/20 00:57:55;;;;;;;10.18;6.05;;;;;;;;;;5046389;28;20404;-68
2023/06/20 01:00:23;;;;;;;10.82;6.18;;;;;;;;;;5046851;28;20057;-67
2023/06/20 01:02:51;;;;;;;9.20;6.57;;;;;;;;;;5045120;28;20462;-67
2023/06/20 01:05:27;;;;;;;11.85;6.10;;;;;;;;;;5051747;28;20053;-67
2023/06/20 01:07:58;;;;;;;11.02;6.35;;;;;;;;;;5055729;28;20059;-67
2023/06/20 01:10:27;;;;;;;10.27;6.38;;;;;;;;;;5050913;28;20399;-67
2023/06/20 01:12:58;;;;;;;12.60;6.95;;;;;;;;;;5036771;28;20562;-67
2023/06/20 01:15:28;;;;;;;11.27;6.25;;;;;;;;;;5047454;28;20052;-67
2023/06/20 01:17:58;;;;;;;11.73;7.60;;;;;;;;;;5042757;28;20072;-67
2023/06/20 01:20:28;;;;;;;10.57;6.22;;;;;;;;;;5062509;28;20055;-67
2023/06/20 01:23:02;;;;;;;10.55;6.97;;;;;;;;;;5055550;28;20049;-67
2023/06/20 01:25:34;;;;;;;14.30;7.63;;;;;;;;;;5063698;28;20084;-67
2023/06/20 01:28:06;;;;;;;12.13;7.57;;;;;;;;;;5037822;28;20496;-67
2023/06/20 01:30:38;;;;;;;11.80;7.30;;;;;;;;;;5044345;28;20044;-67
2023/06/20 01:33:08;;;;;;;10.83;7.10;;;;;;;;;;5054853;28;20049;-67
2023/06/20 01:35:36;;;;;;;13.73;7.68;;;;;;;;;;5054183;28;20103;-67
2023/06/20 01:38:08;;;;;;;11.38;7.10;;;;;;;;;;5043774;28;20048;-67
2023/06/20 01:40:37;;;;;;;12.63;7.67;;;;;;;;;;5058771;28;20055;-67
2023/06/20 01:43:06;;;;;;;16.30;7.47;;;;;;;;;;5058365;28;20049;-67
2023/06/20 01:45:35;;;;;;;11.10;7.15;;;;;;;;;;5039852;28;20412;-67
2023/06/20 01:48:02;;;;;;;11.60;6.90;;;;;;;;;;5041762;28;20041;-67
2023/06/20 01:50:30;;;;;;;13.13;7.25;;;;;;;;;;5038219;28;20492;-67
2023/06/20 01:52:58;;;;;;;15.32;7.43;;;;;;;;;;5049923;28;20052;-67
2023/06/20 01:55:28;;;;;;;11.95;7.25;;;;;;;;;;5043075;28;20041;-68
2023/06/20 01:57:58;;;;;;;9.98;7.18;;;;;;;;;;5029963;28;20052;-67
2023/06/20 02:00:26;;;;;;;13.65;7.75;;;;;;;;;;5046611;28;20533;-68
2023/06/20 02:02:55;;;;;;;12.98;6.95;;;;;;;;;;5046152;28;20407;-67
2023/06/20 02:05:23;;;;;;;11.60;7.43;;;;;;;;;;5043820;28;20045;-68
2023/06/20 02:07:51;;;;;;;13.45;7.10;;;;;;;;;;5052312;28;20059;-67
2023/06/20 02:10:21;;;;;;;12.13;7.93;;;;;;;;;;5051315;28;20087;-67
2023/06/20 02:12:49;;;;;;;11.88;7.10;;;;;;;;;;5052805;28;20057;-67
2023/06/20 02:15:17;;;;;;;10.77;7.63;;;;;;;;;;5040258;28;20052;-67
2023/06/20 02:17:45;;;;;;;13.35;7.57;;;;;;;;;;5047065;28;20072;-67
2023/06/20 02:20:13;;;;;;;11.88;7.80;;;;;;;;;;5050913;28;20041;-67
2023/06/20 02:22:43;;;;;;;12.52;7.55;;;;;;;;;;5033090;28;20046;-67
2023/06/20 02:25:11;;;;;;;11.57;7.72;;;;;;;;;;5043527;28;20055;-67
2023/06/20 02:27:40;;;;;;;12.23;7.20;;;;;;;;;;5056550;28;20483;-68
2023/06/20 02:30:11;;;;;;;12.63;7.47;;;;;;;;;;5036900;28;20082;-67
2023/06/20 02:32:38;;;;;;;11.02;7.97;;;;;;;;;;5053685;28;20052;-67
2023/06/20 02:35:08;;;;;;;15.23;7.70;;;;;;;;;;5045881;28;20060;-67
2023/06/20 02:37:36;;;;;;;13.95;8.10;;;;;;;;;;5028025;28;20487;-67
2023/06/20 02:40:06;;;;;;;11.60;7.85;;;;;;;;;;5036297;28;20053;-67
2023/06/20 02:42:33;;;;;;;10.65;7.82;;;;;;;;;;5044383;28;20507;-67
2023/06/20 02:45:01;;;;;;;14.15;7.75;;;;;;;;;;5023655;28;20089;-67
2023/06/20 02:47:37;;;;;;;12.60;8.00;;;;;;;;;;5049779;28;20063;-67
2023/06/20 02:50:08;;;;;;;11.95;7.60;;;;;;;;;;5045647;28;20053;-67
2023/06/20 02:52:39;;;;;;;13.13;8.60;;;;;;;;;;5046344;28;20519;-67
2023/06/20 02:55:11;;;;;;;13.45;7.65;;;;;;;;;;5046109;28;20432;-67
2023/06/20 02:57:40;;;;;;;14.90;7.82;;;;;;;;;;5040067;28;20484;-67
2023/06/20 03:00:09;;;;;;;13.90;8.40;;;;;;;;;;5019663;28;20045;-67
2023/06/20 03:02:41;;;;;;;11.73;7.57;;;;;;;;;;5047132;28;20046;-67
2023/06/20 03:05:11;;;;;;;14.10;7.97;;;;;;;;;;5042125;28;20484;-67
2023/06/20 03:07:39;;;;;;;14.05;7.97;;;;;;;;;;5022086;28;20057;-67
2023/06/20 03:10:08;;;;;;;10.85;7.53;;;;;;;;;;5037342;28;20518;-67
2023/06/20 03:12:35;;;;;;;12.10;7.82;;;;;;;;;;5050364;28;20441;-67
2023/06/20 03:15:02;;;;;;;13.45;7.18;;;;;;;;;;5043905;28;20412;-67
2023/06/20 03:17:30;;;;;;;9.77;6.88;;;;;;;;;;5047342;28;20040;-67
2023/06/20 03:19:58;;;;;;;11.85;7.13;;;;;;;;;;5040974;28;20060;-67
2023/06/20 03:22:25;;;;;;;9.07;6.47;;;;;;;;;;5040938;28;20044;-67
2023/06/20 03:24:53;;;;;;;9.57;6.50;;;;;;;;;;5038671;28;20056;-67
2023/06/20 03:27:20;;;;;;;10.55;6.30;;;;;;;;;;5043014;28;20052;-67
2023/06/20 03:29:47;;;;;;;8.23;5.45;;;;;;;;;;5044420;28;20136;-67
2023/06/20 03:32:14;;;;;;;12.52;5.30;;;;;;;;;;5040233;28;20480;-67
2023/06/20 03:34:41;;;;;;;10.13;5.80;;;;;;;;;;5037688;28;20073;-67
2023/06/20 03:37:10;;;;;;;9.45;5.45;;;;;;;;;;5052331;28;20115;-67
2023/06/20 03:39:37;;;;;;;8.50;5.43;;;;;;;;;;5048255;28;20542;-66
2023/06/20 03:42:05;;;;;;;10.25;5.30;;;;;;;;;;5050993;28;20483;-67
2023/06/20 03:44:32;;;;;;;12.77;5.30;;;;;;;;;;5047000;28;20049;-67
2023/06/20 03:46:59;;;;;;;8.52;4.50;;;;;;;;;;5050544;28;20107;-67
2023/06/20 03:49:27;;;;;;;6.85;4.32;;;;;;;;;;5036961;28;20048;-67
2023/06/20 03:51:54;;;;;;;6.80;4.35;;;;;;;;;;5022222;28;20064;-67
2023/06/20 03:54:22;;;;;;;6.75;4.20;;;;;;;;;;5027090;28;20049;-67
2023/06/20 03:56:50;;;;;;;7.20;4.07;;;;;;;;;;5045359;28;20049;-67
2023/06/20 03:59:18;;;;;;;7.10;4.30;;;;;;;;;;5041018;28;20408;-67
2023/06/20 04:01:45;;;;;;;4.95;3.72;;;;;;;;;;5020885;28;20048;-67
2023/06/20 04:04:13;;;;;;;6.57;4.10;;;;;;;;;;5034013;28;20057;-67
2023/06/20 04:06:41;;;;;;;6.20;4.15;;;;;;;;;;5053996;28;20045;-67
2023/06/20 04:09:08;;;;;;;6.35;3.97;;;;;;;;;;5043115;28;20053;-67
2023/06/20 04:11:36;;;;;;;6.97;3.95;;;;;;;;;;5048844;28;20056;-67
2023/06/20 04:14:04;;;;;;;11.80;4.35;;;;;;;;;;5045491;28;20057;-67
2023/06/20 04:16:31;;;;;;;8.52;3.90;;;;;;;;;;5031700;28;20053;-67
2023/06/20 04:18:58;;;;;;;7.72;3.83;;;;;;;;;;5040954;28;20048;-67
2023/06/20 04:21:26;;;;;;;8.13;4.10;;;;;;;;;;5042115;28;20088;-67
2023/06/20 04:23:53;;;;;;;5.30;3.75;;;;;;;;;;5040234;28;20488;-67
2023/06/20 04:26:21;;;;;;;6.68;3.72;;;;;;;;;;5025514;28;20055;-67
2023/06/20 04:28:49;;;;;;;7.32;4.18;;;;;;;;;;5038022;28;20076;-67
2023/06/20 04:31:16;;;;;;;7.32;4.00;;;;;;;;;;5046972;28;20068;-67
2023/06/20 04:33:44;;;;;;;7.20;4.03;;;;;;;;;;5039180;28;20123;-67
2023/06/20 04:36:13;;;;;;;6.30;3.72;;;;;;;;;;5042243;28;20049;-67
2023/06/20 04:38:40;;;;;;;6.75;3.92;;;;;;;;;;5046724;28;20071;-67
2023/06/20 04:41:07;;;;;;;5.93;3.65;;;;;;;;;;5053926;28;20048;-66
2023/06/20 04:43:35;;;;;;;7.30;3.90;;;;;;;;;;5054599;28;20041;-67
2023/06/20 04:46:04;;;;;;;5.70;4.07;;;;;;;;;;5031209;28;20060;-67
2023/06/20 04:48:35;;;;;;;6.45;3.83;;;;;;;;;;5045211;28;20064;-67
2023/06/20 04:51:02;;;;;;;8.45;3.95;;;;;;;;;;5039295;28;20044;-67
2023/06/20 04:53:30;;;;;;;5.90;3.60;;;;;;;;;;5041470;28;20315;-67
2023/06/20 04:55:58;;;;;;;6.63;3.72;;;;;;;;;;5047211;28;20061;-67
2023/06/20 04:58:28;;;;;;;6.72;3.95;;;;;;;;;;5035897;28;20057;-68
2023/06/20 05:00:55;;;;;;;6.40;3.80;;;;;;;;;;5046025;28;20486;-69
2023/06/20 05:03:23;;;;;;;5.40;3.50;;;;;;;;;;5039596;28;20903;-68
2023/06/20 05:05:51;;;;;;;6.13;3.72;;;;;;;;;;5023237;28;20553;-67
2023/06/20 05:08:18;;;;;;;6.00;4.15;;;;;;;;;;5028276;28;20395;-67
2023/06/20 05:10:45;;;;;;;5.47;3.58;;;;;;;;;;5041332;28;20100;-67
2023/06/20 05:13:13;;;;;;;5.82;3.58;;;;;;;;;;5027602;28;20049;-67
2023/06/20 05:15:40;;;;;;;6.43;3.50;;;;;;;;;;5041254;28;20535;-67
2023/06/20 05:18:07;;;;;;;7.28;4.03;;;;;;;;;;5047996;28;20510;-69
2023/06/20 05:20:36;;;;;;;5.75;3.72;;;;;;;;;;5041309;28;20082;-69
2023/06/20 05:23:03;;;;;;;5.22;3.42;;;;;;;;;;5042905;28;20052;-69
2023/06/20 05:25:31;;;;;;;6.43;3.65;;;;;;;;;;5044210;28;20514;-69
2023/06/20 05:27:58;;;;;;;7.57;4.05;;;;;;;;;;5026159;28;20110;-70
2023/06/20 05:30:26;;;;;;;7.00;4.28;;;;;;;;;;5052882;28;20568;-70
2023/06/20 05:32:53;;;;;;;7.00;3.92;;;;;;;;;;5048427;28;20041;-70
2023/06/20 05:35:20;;;;;;;5.18;3.90;;;;;;;;;;5046492;28;20052;-72
2023/06/20 05:37:49;;;;;;;6.32;3.90;;;;;;;;;;5018944;28;20049;-70
2023/06/20 05:40:17;;;;;;;5.88;3.95;;;;;;;;;;5051279;28;20509;-70
2023/06/20 05:42:44;;;;;;;8.35;4.00;;;;;;;;;;5041049;28;20045;-69
2023/06/20 05:45:12;;;;;;;8.80;3.90;;;;;;;;;;5040621;28;20053;-69
2023/06/20 05:47:39;;;;;;;7.78;4.07;;;;;;;;;;5044218;28;20049;-68
2023/06/20 05:50:07;;;;;;;6.82;3.72;;;;;;;;;;5044912;28;20049;-69
2023/06/20 05:52:35;;;;;;;4.38;3.30;;;;;;;;;;5029462;28;20045;-69
2023/06/20 05:55:04;;;;;;;4.90;3.50;;;;;;;;;;5047948;28;20534;-69
2023/06/20 05:57:32;;;;;;;9.30;4.47;;;;;;;;;;5045990;28;20492;-68
2023/06/20 05:59:59;;;;;;;6.28;3.72;;;;;;;;;;5036552;28;20056;-69
2023/06/20 06:02:26;;;;;;;5.85;3.90;;;;;;;;;;5022443;28;20057;-68
2023/06/20 06:04:53;;;;;;;6.78;4.18;;;;;;;;;;5024529;28;20052;-70
2023/06/20 06:07:21;;;;;;;5.78;3.80;;;;;;;;;;5018657;28;20354;-68
2023/06/20 06:09:48;;;;;;;7.25;4.15;;;;;;;;;;5039740;28;20053;-68
2023/06/20 06:12:17;;;;;;;7.85;4.22;;;;;;;;;;5052685;28;20041;-68
2023/06/20 06:14:44;;;;;;;7.03;4.00;;;;;;;;;;5046488;28;20390;-68
2023/06/20 06:17:11;;;;;;;8.27;4.03;;;;;;;;;;5038096;28;20054;-69
2023/06/20 06:19:39;;;;;;;11.70;4.25;;;;;;;;;;5049805;28;20041;-68
2023/06/20 06:22:06;;;;;;;7.10;4.63;;;;;;;;;;5026007;28;20099;-68
2023/06/20 06:24:33;;;;;;;7.45;4.45;;;;;;;;;;5026264;28;20388;-69
2023/06/20 06:27:01;;;;;;;9.95;5.03;;;;;;;;;;5046011;28;20614;-69
2023/06/20 06:29:29;;;;;;;7.50;4.65;;;;;;;;;;5032152;28;20072;-68
2023/06/20 06:31:57;;;;;;;6.40;4.45;;;;;;;;;;5041712;28;20392;-68
2023/06/20 06:34:26;;;;;;;6.95;4.28;;;;;;;;;;5051745;28;20449;-69
2023/06/20 06:36:53;;;;;;;8.23;4.53;;;;;;;;;;5051047;28;20053;-69
2023/06/20 06:39:20;;;;;;;7.20;4.60;;;;;;;;;;5043087;28;20053;-68
2023/06/20 06:41:49;;;;;;;5.82;4.18;;;;;;;;;;5051542;28;20044;-68
2023/06/20 06:44:17;;;;;;;6.85;4.68;;;;;;;;;;5048259;28;20067;-68
2023/06/20 06:46:46;;;;;;;7.03;4.70;;;;;;;;;;5058441;28;20132;-69
2023/06/20 06:49:13;;;;;;;6.97;4.70;;;;;;;;;;5050226;28;20049;-69
2023/06/20 06:51:41;;;;;;;6.03;4.60;;;;;;;;;;5046285;28;20045;-69
2023/06/20 06:54:08;;;;;;;7.57;4.20;;;;;;;;;;5046726;28;20416;-68
2023/06/20 06:56:35;;;;;;;8.30;4.65;;;;;;;;;;5047415;28;20045;-69
2023/06/20 06:59:02;;;;;;;8.32;4.72;;;;;;;;;;5020443;28;20059;-68
2023/06/20 07:01:30;;;;;;;9.00;4.93;;;;;;;;;;5042872;28;20155;-70
2023/06/20 07:03:58;;;;;;;6.63;4.40;;;;;;;;;;5041533;28;20049;-71
2023/06/20 07:06:26;;;;;;;8.32;4.78;;;;;;;;;;5051534;28;20395;-70
2023/06/20 07:08:53;;;;;;;7.72;4.95;;;;;;;;;;5045697;28;20418;-71
2023/06/20 07:11:20;;;;;;;8.70;4.50;;;;;;;;;;5041201;28;20057;-71
2023/06/20 07:13:47;;;;;;;6.35;4.70;;;;;;;;;;5039935;28;20511;-71
2023/06/20 07:16:15;;;;;;;9.73;5.43;;;;;;;;;;5049795;28;20108;-71
2023/06/20 07:18:43;;;;;;;8.73;5.05;;;;;;;;;;5046089;28;20095;-71
2023/06/20 07:21:11;;;;;;;8.35;5.75;;;;;;;;;;5046158;28;20050;-71
2023/06/20 07:23:38;;;;;;;8.60;5.18;;;;;;;;;;5051650;28;20041;-71
2023/06/20 07:26:06;;;;;;;8.13;5.30;;;;;;;;;;5037872;28;20056;-72
2023/06/20 07:28:33;;;;;;;7.03;5.10;;;;;;;;;;5039024;28;20069;-71
2023/06/20 07:31:00;;;;;;;15.45;5.95;;;;;;;;;;5046361;28;20049;-71
2023/06/20 07:33:27;;;;;;;9.13;5.45;;;;;;;;;;5042207;28;20044;-71
2023/06/20 07:35:55;;;;;;;12.15;5.85;;;;;;;;;;5043910;28;20045;-71
2023/06/20 07:38:23;;;;;;;7.53;5.43;;;;;;;;;;5048492;28;20223;-71
2023/06/20 07:40:51;;;;;;;7.10;5.25;;;;;;;;;;5054597;28;20476;-70
2023/06/20 07:43:19;;;;;;;8.85;5.97;;;;;;;;;;5044183;28;20048;-71
2023/06/20 07:45:46;;;;;;;7.90;5.13;;;;;;;;;;5050245;28;20273;-72
2023/06/20 07:48:13;;;;;;;11.05;5.50;;;;;;;;;;5048984;28;20049;-72
2023/06/20 07:50:41;;;;;;;9.95;5.78;;;;;;;;;;5039599;28;20050;-71
2023/06/20 07:53:08;;;;;;;8.80;5.60;;;;;;;;;;5046578;28;20048;-70
2023/06/20 07:55:38;;;;;;;8.60;5.43;;;;;;;;;;5050059;28;20662;-71
2023/06/20 07:58:05;;;;;;;7.07;5.13;;;;;;;;;;5044956;28;20492;-71
2023/06/20 08:00:32;;;;;;;8.10;5.60;;;;;;;;;;5051936;28;20495;-71
2023/06/20 08:03:00;;;;;;;6.80;5.10;;;;;;;;;;5048286;28;20045;-71
2023/06/20 08:05:27;;;;;;;7.70;5.38;;;;;;;;;;5046831;28;20055;-71
2023/06/20 08:07:54;;;;;;;8.80;5.97;;;;;;;;;;5042167;28;20052;-71
2023/06/20 08:10:21;;;;;;;7.18;5.40;;;;;;;;;;5042818;28;20053;-69
2023/06/20 08:12:50;;;;;;;8.07;5.50;;;;;;;;;;5047418;28;20048;-69
2023/06/20 08:15:17;;;;;;;9.68;5.60;;;;;;;;;;5046414;28;20059;-69
2023/06/20 08:17:44;;;;;;;7.97;5.50;;;;;;;;;;5049892;28;20049;-69
2023/06/20 08:20:12;;;;;;;8.60;5.80;;;;;;;;;;5053969;28;20488;-69
2023/06/20 08:22:39;;;;;;;6.55;5.07;;;;;;;;;;5050288;28;20071;-69
2023/06/20 08:25:07;;;;;;;9.35;5.57;;;;;;;;;;5045216;28;20484;-69
2023/06/20 08:27:34;;;;;;;8.77;5.45;;;;;;;;;;5047444;28;20102;-69
2023/06/20 08:30:03;;;;;;;8.10;5.60;;;;;;;;;;5049203;28;20432;-69
2023/06/20 08:32:30;;;;;;;10.48;5.78;;;;;;;;;;5054583;28;20045;-68
2023/06/20 08:34:57;;;;;;;8.30;5.30;;;;;;;;;;5019743;28;20053;-69
2023/06/20 08:37:24;;;;;;;8.95;5.72;;;;;;;;;;5052558;28;20049;-68
2023/06/20 08:39:52;;;;;;;13.18;5.85;;;;;;;;;;5043037;28;20068;-69
2023/06/20 08:42:19;;;;;;;9.25;5.57;;;;;;;;;;5060625;28;20048;-69
2023/06/20 08:44:46;;;;;;;6.53;5.25;;;;;;;;;;5046040;28;20066;-69
2023/06/20 08:47:15;;;;;;;7.63;5.38;;;;;;;;;;5050307;28;21566;-68
2023/06/20 08:49:42;;;;;;;6.80;5.20;;;;;;;;;;5045068;28;20062;-69
2023/06/20 08:52:12;;;;;;;8.07;5.80;;;;;;;;;;5055203;28;20183;-69
2023/06/20 08:54:41;;;;;;;9.82;6.22;;;;;;;;;;5064707;28;20052;-69
2023/06/20 08:57:08;;;;;;;10.88;6.00;;;;;;;;;;5043469;28;20052;-69
2023/06/20 08:59:36;;;;;;;7.57;5.38;;;;;;;;;;5032310;28;20759;-69
2023/06/20 09:02:03;;;;;;;7.82;5.35;;;;;;;;;;5046800;28;20476;-69
2023/06/20 09:04:32;;;;;;;11.75;5.85;;;;;;;;;;5035650;28;20790;-69
2023/06/20 09:07:01;;;;;;;10.40;5.25;;;;;;;;;;5044864;28;20049;-69
2023/06/20 09:09:28;;;;;;;7.00;5.60;;;;;;;;;;5030209;28;20052;-69
2023/06/20 09:11:58;;;;;;;7.60;5.32;;;;;;;;;;5040871;28;20056;-69
2023/06/20 09:14:27;;;;;;;10.32;6.75;;;;;;;;;;5042348;28;20394;-69
2023/06/20 09:16:54;;;;;;;7.43;5.10;;;;;;;;;;5041104;28;20055;-69
2023/06/20 09:19:22;;;;;;;8.40;5.55;;;;;;;;;;5021007;28;20064;-69
2023/06/20 09:21:50;;;;;;;9.30;5.78;;;;;;;;;;5041699;28;20048;-69
2023/06/20 09:24:19;;;;;;;8.98;5.63;;;;;;;;;;5045362;28;20056;-69
2023/06/20 09:26:47;;;;;;;6.85;5.28;;;;;;;;;;5040889;28;20099;-70
2023/06/20 09:29:15;;;;;;;8.05;5.70;;;;;;;;;;5026027;28;20567;-70
2023/06/20 09:31:48;;;;;;;7.70;4.85;;;;;;;;;;5042311;28;20038;-70
2023/06/20 09:34:15;;;;;;;9.02;5.95;;;;;;;;;;5035155;28;20047;-69
2023/06/20 09:36:43;;;;;;;9.32;5.60;;;;;;;;;;5046048;28;20056;-69
2023/06/20 09:39:13;;;;;;;9.52;5.72;;;;;;;;;;5049256;28;20056;-70
2023/06/20 09:41:47;;;;;;;7.78;6.20;;;;;;;;;;5040339;28;20080;-69
2023/06/20 09:44:15;;;;;;;7.75;5.40;;;;;;;;;;5040934;28;20059;-70
2023/06/20 09:46:42;;;;;;;6.35;5.22;;;;;;;;;;5048248;28;20047;-70
2023/06/20 09:49:12;;;;;;;9.63;5.85;;;;;;;;;;5045514;28;20507;-70
2023/06/20 09:51:43;;;;;;;6.25;5.18;;;;;;;;;;5040222;28;20045;-70
2023/06/20 09:54:13;;;;;;;8.75;5.75;;;;;;;;;;5042779;28;20131;-70
2023/06/20 09:56:41;;;;;;;7.05;4.85;;;;;;;;;;5036993;28;20051;-70
2023/06/20 09:59:10;;;;;;;9.32;4.88;;;;;;;;;;5043398;28;20049;-70
2023/06/20 10:01:39;;;;;;;7.38;5.55;;;;;;;;;;5039647;28;20522;-69
2023/06/20 10:04:07;;;;;;;8.65;4.90;;;;;;;;;;5040595;28;20489;-69
2023/06/20 10:06:37;;;;;;;6.80;4.90;;;;;;;;;;5041259;28;20141;-70
2023/06/20 10:09:05;;;;;;;8.45;5.13;;;;;;;;;;5050186;28;20127;-70
2023/06/20 10:11:34;;;;;;;7.50;5.05;;;;;;;;;;5047125;28;20397;-70
2023/06/20 10:14:01;;;;;;;7.82;5.07;;;;;;;;;;5051596;28;20404;-70
2023/06/20 10:16:29;;;;;;;7.55;5.03;;;;;;;;;;5034691;28;20045;-70
2023/06/20 10:18:57;;;;;;;6.07;4.85;;;;;;;;;;5046304;28;20049;-69
2023/06/20 10:21:39;;;;;;;7.85;5.05;;;;;;;;;;5048960;28;20400;-70
2023/06/20 10:24:06;;;;;;;6.67;5.10;;;;;;;;;;5032329;28;20056;-70
2023/06/20 10:26:35;;;;;;;6.75;5.22;;;;;;;;;;5046822;28;20052;-70
2023/06/20 10:29:03;;;;;;;5.53;4.40;;;;;;;;;;5052017;28;20052;-70
2023/06/20 10:31:54;;;;;;;5.95;4.25;;;;;;;;;;5036453;28;20088;-70
2023/06/20 10:34:31;;;;;;;6.10;5.00;;;;;;;;;;5053179;28;20053;-70
2023/06/20 10:37:10;;;;;;;7.88;5.05;;;;;;;;;;5058008;28;20052;-70
2023/06/20 10:39:37;;;;;;;5.90;4.47;;;;;;;;;;5061920;28;20509;-70
2023/06/20 10:42:09;;;;;;;6.25;3.78;;;;;;;;;;5057949;28;20040;-70
2023/06/20 10:44:36;;;;;;;5.87;3.77;;;;;;;;;;5031365;28;20079;-70
2023/06/20 10:47:03;;;;;;;4.80;4.10;;;;;;;;;;5046098;28;20061;-71
2023/06/20 10:49:30;;;;;;;4.72;3.33;;;;;;;;;;5053048;28;20060;-70
2023/06/20 10:51:58;;;;;;;5.05;3.17;;;;;;;;;;5050132;28;20554;-70
2023/06/20 10:54:33;;;;;;;5.07;3.63;;;;;;;;;;5046515;28;20420;-71
2023/06/20 10:57:00;;;;;;;4.68;3.55;;;;;;;;;;5053364;28;20543;-70
2023/06/20 10:59:29;;;;;;;6.22;3.80;;;;;;;;;;5063618;28;20055;-71
2023/06/20 11:01:56;;;;;;;6.63;4.57;;;;;;;;;;5031609;28;20052;-70
2023/06/20 11:04:23;;;;;;;5.53;4.28;;;;;;;;;;5047694;28;20045;-71
2023/06/20 11:06:51;;;;;;;5.55;4.22;;;;;;;;;;5045472;28;20045;-70
2023/06/20 11:09:18;;;;;;;6.22;4.65;;;;;;;;;;5040422;28;20061;-71
2023/06/20 11:11:45;;;;;;;4.78;3.75;;;;;;;;;;5045016;28;20520;-71
2023/06/20 11:14:13;;;;;;;5.05;4.45;;;;;;;;;;5039367;28;20060;-70
2023/06/20 11:16:42;;;;;;;5.10;4.18;;;;;;;;;;5042466;28;20129;-71
2023/06/20 11:19:10;;;;;;;3.83;3.35;;;;;;;;;;5038900;28;20045;-71
2023/06/20 11:21:37;;;;;;;3.80;3.40;;;;;;;;;;5038983;28;20083;-71
2023/06/20 11:24:05;;;;;;;6.35;3.90;;;;;;;;;;5035664;28;20641;-71
2023/06/20 11:26:33;;;;;;;6.20;3.97;;;;;;;;;;5046458;28;20049;-71
2023/06/20 11:29:00;;;;;;;4.00;3.60;;;;;;;;;;5041213;28;20056;-71
2023/06/20 11:31:28;;;;;;;4.60;3.90;;;;;;;;;;5035868;28;20057;-71
2023/06/20 11:34:04;;;;;;;4.43;3.65;;;;;;;;;;5023369;28;20157;-71
2023/06/20 11:36:31;;;;;;;3.45;3.15;;;;;;;;;;5034805;28;20041;-71
2023/06/20 11:38:59;;;;;;;3.00;2.60;;;;;;;;;;5047269;28;20041;-71
2023/06/20 11:41:31;;;;;;;3.42;2.92;;;;;;;;;;5045800;28;20057;-71
2023/06/20 11:43:58;;;;;;;5.22;2.95;;;;;;;;;;5045300;28;20105;-71
2023/06/20 11:46:26;;;;;;;4.38;2.95;;;;;;;;;;5039640;28;20057;-71
2023/06/20 11:48:56;;;;;;;3.20;2.83;;;;;;;;;;5046906;28;20049;-71
2023/06/20 11:51:26;;;;;;;3.25;2.80;;;;;;;;;;5043476;28;20041;-71
2023/06/20 11:54:01;;;;;;;3.60;3.30;;;;;;;;;;5033092;28;20538;-71
2023/06/20 11:56:28;;;;;;;3.00;2.80;;;;;;;;;;5039881;28;20049;-71
2023/06/20 11:58:56;;;;;;;3.83;3.00;;;;;;;;;;5035091;28;20057;-71
2023/06/20 12:01:24;;;;;;;4.68;3.17;;;;;;;;;;5036062;28;20079;-71
2023/06/20 12:04:03;;;;;;;3.50;2.90;;;;;;;;;;5035858;28;20149;-71
2023/06/20 12:06:32;;;;;;;3.95;3.13;;;;;;;;;;5044830;28;20506;-71
2023/06/20 12:09:00;;;;;;;3.50;3.00;;;;;;;;;;5047972;28;20060;-71
2023/06/20 12:11:28;;;;;;;4.07;3.25;;;;;;;;;;5033892;28;20052;-71
2023/06/20 12:13:55;;;;;;;3.53;2.70;;;;;;;;;;5045318;28;20076;-71
2023/06/20 12:16:23;;;;;;;3.63;3.20;;;;;;;;;;5051402;28;20503;-71
2023/06/20 12:18:51;;;;;;;5.45;3.13;;;;;;;;;;5042346;28;20041;-71
2023/06/20 12:21:18;;;;;;;3.38;2.83;;;;;;;;;;5039391;28;20084;-71
2023/06/20 12:23:47;;;;;;;6.93;3.17;;;;;;;;;;5044362;28;20054;-71
2023/06/20 12:26:14;;;;;;;3.20;2.90;;;;;;;;;;5055808;28;20575;-71
2023/06/20 12:28:42;;;;;;;3.20;2.90;;;;;;;;;;5048515;28;20060;-71
2023/06/20 12:31:11;;;;;;;3.80;3.00;;;;;;;;;;5044234;28;20109;-71
2023/06/20 12:33:38;;;;;;;5.93;2.88;;;;;;;;;;5038566;28;20103;-71
2023/06/20 12:36:06;;;;;;;3.53;2.90;;;;;;;;;;5044921;28;20474;-71
2023/06/20 12:38:34;;;;;;;3.03;2.72;;;;;;;;;;5025744;28;20057;-71
2023/06/20 12:41:03;;;;;;;5.25;3.08;;;;;;;;;;5053812;28;20096;-71
2023/06/20 12:43:30;;;;;;;3.30;3.00;;;;;;;;;;5044430;28;20142;-71
2023/06/20 12:45:58;;;;;;;3.10;2.80;;;;;;;;;;5046098;28;20049;-71
2023/06/20 12:48:26;;;;;;;3.30;3.00;;;;;;;;;;5051359;28;20465;-71
2023/06/20 12:50:53;;;;;;;4.30;3.20;;;;;;;;;;5043983;28;20053;-71
2023/06/20 12:53:21;;;;;;;3.63;3.10;;;;;;;;;;5050340;28;20056;-71
2023/06/20 12:55:48;;;;;;;3.67;3.30;;;;;;;;;;5046423;28;20526;-71
2023/06/20 12:58:17;;;;;;;3.70;2.83;;;;;;;;;;5046115;28;20064;-71
2023/06/20 13:00:45;;;;;;;3.95;3.55;;;;;;;;;;5039774;28;20051;-71
2023/06/20 13:03:12;;;;;;;3.85;3.55;;;;;;;;;;5054656;28;20061;-71
2023/06/20 13:05:40;;;;;;;4.03;3.38;;;;;;;;;;5043637;28;20494;-71
2023/06/20 13:08:08;;;;;;;4.97;3.50;;;;;;;;;;5059210;28;20061;-71
2023/06/20 13:10:36;;;;;;;5.85;3.30;;;;;;;;;;5053402;28;20053;-71
2023/06/20 13:13:04;;;;;;;4.25;3.67;;;;;;;;;;5030081;28;20144;-72
2023/06/20 13:15:33;;;;;;;3.60;3.30;;;;;;;;;;5047978;28;20052;-71
2023/06/20 13:18:03;;;;;;;6.00;3.75;;;;;;;;;;5048152;28;20083;-71
2023/06/20 13:20:31;;;;;;;4.32;3.92;;;;;;;;;;5055369;28;20062;-71
2023/06/20 13:22:58;;;;;;;4.57;4.18;;;;;;;;;;5065195;28;20064;-71
2023/06/20 13:25:26;;;;;;;4.75;4.18;;;;;;;;;;5061815;28;20055;-71
2023/06/20 13:27:54;;;;;;;4.40;4.00;;;;;;;;;;5053146;28;20136;-71
2023/06/20 13:30:21;;;;;;;4.30;3.90;;;;;;;;;;5051734;28;20048;-71
2023/06/20 13:32:50;;;;;;;4.40;4.00;;;;;;;;;;5050977;28;20041;-71
2023/06/20 13:35:21;;;;;;;4.47;4.07;;;;;;;;;;5046463;28;20053;-71
2023/06/20 13:37:48;;;;;;;4.57;3.67;;;;;;;;;;5063972;28;20053;-70
2023/06/20 13:40:16;;;;;;;3.72;3.42;;;;;;;;;;5055551;28;20107;-71
2023/06/20 13:42:44;;;;;;;4.47;3.97;;;;;;;;;;5047856;28;20051;-71
2023/06/20 13:45:12;;;;;;;8.95;3.65;;;;;;;;;;5052288;28;20131;-71
2023/06/20 13:47:40;;;;;;;9.90;4.40;;;;;;;;;;5057962;28;20048;-71
2023/06/20 13:50:09;;;;;;;4.32;3.90;;;;;;;;;;5046235;28;20054;-71
2023/06/20 13:52:37;;;;;;;5.13;3.95;;;;;;;;;;5040529;28;20060;-70
2023/06/20 13:55:04;;;;;;;4.15;3.70;;;;;;;;;;5045778;28;20527;-71
2023/06/20 13:57:32;;;;;;;3.92;3.35;;;;;;;;;;5051799;28;20049;-71
2023/06/20 13:59:59;;;;;;;4.13;3.65;;;;;;;;;;5049231;28;20101;-71
2023/06/20 14:02:27;;;;;;;4.03;3.58;;;;;;;;;;5043307;28;20045;-71
2023/06/20 14:04:54;;;;;;;4.78;3.80;;;;;;;;;;5037008;28;20057;-71
2023/06/20 14:07:23;;;;;;;4.60;3.75;;;;;;;;;;5046736;28;20134;-71
2023/06/20 14:09:51;;;;;;;4.03;3.47;;;;;;;;;;5041650;28;20124;-71
2023/06/20 14:12:19;;;;;;;7.80;3.58;;;;;;;;;;5040562;28;20057;-71
2023/06/20 14:14:46;;;;;;;4.20;3.80;;;;;;;;;;5031476;28;20087;-71
2023/06/20 14:17:13;;;;;;;5.82;3.70;;;;;;;;;;5036997;28;20052;-70
2023/06/20 14:19:41;;;;;;;3.85;3.42;;;;;;;;;;5037649;28;20435;-71
2023/06/20 14:22:08;;;;;;;3.75;3.40;;;;;;;;;;5051427;28;20056;-71
2023/06/20 14:24:36;;;;;;;6.82;3.47;;;;;;;;;;5055364;28;20053;-71
2023/06/20 14:27:04;;;;;;;3.92;3.38;;;;;;;;;;5048755;28;20056;-71
2023/06/20 14:29:31;;;;;;;3.92;3.50;;;;;;;;;;5042979;28;20049;-71
2023/06/20 14:31:58;;;;;;;4.00;3.38;;;;;;;;;;5050102;28;20048;-71
2023/06/20 14:34:26;;;;;;;3.20;2.90;;;;;;;;;;5027743;28;20049;-71
2023/06/20 14:36:53;;;;;;;4.45;3.60;;;;;;;;;;5056197;28;20052;-71
2023/06/20 14:39:23;;;;;;;3.63;3.03;;;;;;;;;;5043915;28;20053;-67
2023/06/20 14:41:51;;;;;;;4.15;3.38;;;;;;;;;;5057388;28;20095;-67
2023/06/20 14:44:19;;;;;;;3.92;3.38;;;;;;;;;;5051739;28;20041;-68
2023/06/20 14:46:46;;;;;;;5.82;3.35;;;;;;;;;;5039834;28;20052;-67